createdAt,value
2023-05-08T00:01:38.706Z,67.66
2023-05-08T00:04:09.532Z,67.67
2023-05-08T00:06:38.794Z,67.98
2023-05-08T00:09:09.541Z,67.89
2023-05-08T00:11:40.384Z,67.83
2023-05-08T00:14:10.991Z,67.85
2023-05-08T00:16:41.673Z,67.88
2023-05-08T00:19:12.436Z,68.01
2023-05-08T00:21:43.120Z,68.04
2023-05-08T00:24:14.035Z,67.95
2023-05-08T00:26:44.633Z,67.98
2023-05-08T00:29:15.293Z,68.13
2023-05-08T00:31:45.929Z,68.08
2023-05-08T00:34:16.574Z,68.07
2023-05-08T00:36:47.237Z,68.21
2023-05-08T00:39:18.329Z,68.36
2023-05-08T00:41:49.047Z,68.49
2023-05-08T00:44:19.677Z,68.37
2023-05-08T00:46:50.687Z,68.56
2023-05-08T00:49:21.381Z,68.69
2023-05-08T00:51:54.439Z,68.41
2023-05-08T00:54:26.365Z,68.83
2023-05-08T00:56:57.212Z,69.03
2023-05-08T00:59:28.411Z,68.92
2023-05-08T01:01:59.595Z,69.07
2023-05-08T01:04:33.218Z,68.92
2023-05-08T01:07:04.817Z,68.86
2023-05-08T01:09:35.806Z,69.35
2023-05-08T01:12:15.232Z,68.95
2023-05-08T01:15:04.746Z,68.95
2023-05-08T01:17:43.420Z,69.09
2023-05-08T01:20:30.243Z,69.10
2023-05-08T01:23:19.641Z,69.11
2023-05-08T01:26:34.931Z,69.21
2023-05-08T01:29:43.320Z,69.46
2023-05-08T01:32:17.880Z,69.41
2023-05-08T01:34:56.663Z,69.42
2023-05-08T01:37:34.548Z,69.47
2023-05-08T01:40:17.472Z,69.28
2023-05-08T01:42:54.004Z,69.46
2023-05-08T01:45:32.053Z,69.73
2023-05-08T01:48:10.600Z,69.57
2023-05-08T01:50:45.816Z,69.53
2023-05-08T01:53:21.317Z,69.62
2023-05-08T01:55:57.192Z,69.84
2023-05-08T01:58:30.811Z,69.75
2023-05-08T02:01:02.644Z,69.66
2023-05-08T02:03:35.038Z,69.81
2023-05-08T02:06:07.618Z,70.04
2023-05-08T02:08:39.734Z,69.90
2023-05-08T02:11:12.333Z,70.07
2023-05-08T02:13:44.590Z,69.97
2023-05-08T02:16:16.380Z,70.34
2023-05-08T02:18:51.823Z,70.98
2023-05-08T02:21:23.842Z,70.69
2023-05-08T02:23:56.775Z,71.05
2023-05-08T02:26:28.664Z,70.64
2023-05-08T02:29:00.597Z,70.92
2023-05-08T02:31:31.941Z,70.57
2023-05-08T02:34:04.157Z,70.87
2023-05-08T02:36:35.729Z,70.76
2023-05-08T02:39:08.424Z,70.62
2023-05-08T02:41:41.102Z,70.76
2023-05-08T02:44:12.460Z,70.68
2023-05-08T02:46:53.488Z,70.97
2023-05-08T02:49:32.135Z,70.75
2023-05-08T02:52:10.612Z,70.98
2023-05-08T02:54:45.864Z,70.93
2023-05-08T02:57:28.509Z,71.46
2023-05-08T03:00:04.361Z,71.43
2023-05-08T03:02:40.347Z,71.37
2023-05-08T03:05:16.942Z,71.63
2023-05-08T03:07:50.905Z,71.64
2023-05-08T03:10:26.794Z,71.46
2023-05-08T03:12:59.971Z,71.50
2023-05-08T03:15:36.189Z,71.53
2023-05-08T03:18:11.638Z,71.44
2023-05-08T03:20:48.226Z,71.34
2023-05-08T03:23:20.916Z,71.55
2023-05-08T03:25:52.820Z,71.40
2023-05-08T03:28:24.269Z,71.30
2023-05-08T03:30:56.010Z,71.37
2023-05-08T03:33:28.973Z,71.28
2023-05-08T03:36:01.049Z,71.29
2023-05-08T03:38:31.810Z,71.38
2023-05-08T03:41:02.937Z,71.19
2023-05-08T03:43:34.047Z,71.27
2023-05-08T03:46:04.804Z,70.94
2023-05-08T03:48:36.656Z,71.25
2023-05-08T03:51:09.629Z,71.49
2023-05-08T03:53:40.327Z,71.27
2023-05-08T03:56:11.123Z,71.41
2023-05-08T03:58:50.515Z,71.25
2023-05-08T04:01:28.801Z,71.59
2023-05-08T04:04:06.079Z,71.94
2023-05-08T04:06:49.969Z,71.99
2023-05-08T04:09:26.979Z,71.87
2023-05-08T04:12:03.802Z,71.56
2023-05-08T04:14:40.279Z,70.76
2023-05-08T04:17:14.576Z,68.57
2023-05-08T04:19:57.828Z,65.28
2023-05-08T04:22:29.570Z,61.97
2023-05-08T04:25:03.758Z,61.02
2023-05-08T04:27:34.973Z,58.86
2023-05-08T04:30:08.539Z,56.81
2023-05-08T04:32:41.849Z,56.18
2023-05-08T04:35:14.428Z,51.06
2023-05-08T04:37:46.236Z,50.96
2023-05-08T04:40:16.864Z,49.84
2023-05-08T04:42:47.860Z,48.78
2023-05-08T04:45:19.445Z,42.96
2023-05-08T04:47:50.160Z,47.49
2023-05-08T04:50:20.849Z,46.21
2023-05-08T04:52:51.491Z,44.70
2023-05-08T04:55:22.174Z,44.04
2023-05-08T04:57:52.761Z,40.84
2023-05-08T05:00:26.484Z,40.80
2023-05-08T05:02:57.155Z,42.55
2023-05-08T05:05:28.063Z,45.27
2023-05-08T05:07:58.838Z,43.08
2023-05-08T05:10:30.761Z,44.15
2023-05-08T05:13:02.997Z,43.13
2023-05-08T05:15:33.897Z,43.20
2023-05-08T05:18:04.771Z,40.65
2023-05-08T05:20:35.550Z,40.53
2023-05-08T05:23:06.341Z,43.64
2023-05-08T05:25:39.639Z,45.14
2023-05-08T05:28:12.865Z,46.00
2023-05-08T05:30:46.454Z,45.53
2023-05-08T05:33:17.143Z,46.03
2023-05-08T05:36:00.119Z,46.83
2023-05-08T05:41:56.815Z,48.42
2023-05-08T05:44:40.194Z,49.27
2023-05-08T05:47:13.325Z,50.33
2023-05-08T05:49:58.937Z,50.94
2023-05-08T05:52:33.942Z,51.65
2023-05-08T05:55:15.221Z,51.97
2023-05-08T05:58:17.029Z,52.32
2023-05-08T06:00:49.230Z,53.17
2023-05-08T06:03:21.546Z,53.70
2023-05-08T06:05:54.342Z,54.04
2023-05-08T06:08:27.166Z,53.94
2023-05-08T06:10:58.375Z,54.51
2023-05-08T06:13:29.299Z,54.10
2023-05-08T06:16:02.140Z,54.13
2023-05-08T06:18:32.976Z,54.22
2023-05-08T06:21:03.798Z,54.07
2023-05-08T06:23:34.687Z,53.99
2023-05-08T06:26:05.688Z,54.24
2023-05-08T06:28:34.785Z,54.15
2023-05-08T06:31:05.583Z,54.16
2023-05-08T06:33:36.247Z,54.24
2023-05-08T06:36:10.970Z,54.75
2023-05-08T06:39:13.909Z,54.45
2023-05-08T06:41:35.737Z,54.17
2023-05-08T06:44:09.663Z,53.90
2023-05-08T06:46:40.736Z,54.24
2023-05-08T06:49:11.839Z,54.42
2023-05-08T06:51:42.603Z,54.20
2023-05-08T06:54:14.027Z,53.49
2023-05-08T06:56:44.861Z,53.17
2023-05-08T06:59:15.544Z,52.64
2023-05-08T07:01:46.340Z,52.98
2023-05-08T07:08:24.355Z,53.45
2023-05-08T07:10:54.974Z,53.43
2023-05-08T07:13:25.844Z,52.97
2023-05-08T07:15:57.216Z,53.03
2023-05-08T07:18:26.447Z,52.67
2023-05-08T07:21:43.702Z,52.75
2023-05-08T07:24:14.988Z,52.00
2023-05-08T07:26:45.999Z,51.94
2023-05-08T07:29:19.912Z,51.20
2023-05-08T07:31:50.560Z,50.67
2023-05-08T07:34:21.560Z,51.16
2023-05-08T07:36:53.012Z,50.73
2023-05-08T07:39:33.794Z,51.59
2023-05-08T07:42:04.643Z,50.89
2023-05-08T07:44:40.630Z,51.07
2023-05-08T07:47:21.872Z,50.56
2023-05-08T07:49:51.074Z,50.32
2023-05-08T07:52:21.832Z,49.93
2023-05-08T07:54:52.536Z,47.98
2023-05-08T07:57:23.176Z,48.89
2023-05-08T07:59:53.862Z,49.23
2023-05-08T08:02:24.614Z,48.59
2023-05-08T08:04:55.411Z,48.50
2023-05-08T08:07:26.202Z,48.25
2023-05-08T08:09:57.170Z,48.58
2023-05-08T08:12:29.371Z,48.85
2023-05-08T08:15:00.180Z,49.29
2023-05-08T08:17:29.489Z,48.19
2023-05-08T08:20:00.463Z,47.33
2023-05-08T08:22:29.551Z,46.40
2023-05-08T08:25:01.077Z,47.45
2023-05-08T08:27:31.785Z,48.28
2023-05-08T08:30:16.128Z,47.89
2023-05-08T08:32:47.974Z,46.72
2023-05-08T08:35:19.009Z,46.55
2023-05-08T08:37:49.669Z,45.94
2023-05-08T08:40:20.368Z,45.94
2023-05-08T08:42:51.102Z,45.86
2023-05-08T08:45:21.925Z,46.53
2023-05-08T08:47:54.410Z,45.90
2023-05-08T08:50:26.397Z,43.95
2023-05-08T08:53:07.455Z,45.49
2023-05-08T08:55:43.604Z,45.07
2023-05-08T08:58:21.609Z,45.21
2023-05-08T09:00:53.524Z,44.40
2023-05-08T09:03:24.229Z,44.62
2023-05-08T09:05:55.327Z,44.12
2023-05-08T09:08:26.105Z,44.30
2023-05-08T09:10:55.635Z,45.19
2023-05-08T09:13:26.855Z,45.36
2023-05-08T09:16:44.283Z,43.93
2023-05-08T09:19:35.407Z,43.89
2023-05-08T09:22:06.554Z,44.32
2023-05-08T09:24:58.482Z,45.47
2023-05-08T09:27:30.651Z,45.27
2023-05-08T09:30:03.598Z,44.22
2023-05-08T09:32:36.084Z,44.36
2023-05-08T09:35:09.217Z,42.60
2023-05-08T09:37:42.642Z,42.39
2023-05-08T09:40:18.131Z,39.85
2023-05-08T09:42:49.873Z,41.13
2023-05-08T09:45:31.545Z,40.92
2023-05-08T09:48:02.838Z,40.56
2023-05-08T09:50:32.249Z,41.09
2023-05-08T09:53:03.032Z,41.23
2023-05-08T09:55:48.464Z,41.48
2023-05-08T09:58:19.221Z,40.20
2023-05-08T10:00:49.949Z,39.65
2023-05-08T10:03:19.190Z,41.25
2023-05-08T10:05:49.831Z,40.29
2023-05-08T10:08:21.901Z,39.67
2023-05-08T10:10:53.259Z,39.82
2023-05-08T10:16:47.063Z,40.02
2023-05-08T10:19:51.409Z,39.29
2023-05-08T10:22:47.640Z,38.60
2023-05-08T10:26:14.169Z,38.24
2023-05-08T10:28:56.476Z,39.85
2023-05-08T10:31:31.336Z,39.72
2023-05-08T10:34:05.688Z,39.06
2023-05-08T10:36:37.830Z,39.85
2023-05-08T10:39:08.832Z,37.84
2023-05-08T10:41:40.910Z,38.71
2023-05-08T10:44:13.092Z,38.99
2023-05-08T10:46:49.414Z,39.12
2023-05-08T10:49:26.088Z,39.52
2023-05-08T10:52:06.557Z,39.86
2023-05-08T10:54:48.383Z,38.44
2023-05-08T10:57:20.232Z,36.86
2023-05-08T10:59:50.743Z,38.84
2023-05-08T11:02:28.223Z,38.36
2023-05-08T11:05:15.971Z,39.20
2023-05-08T11:08:03.270Z,39.51
2023-05-08T11:10:35.027Z,38.51
2023-05-08T11:13:06.851Z,38.52
2023-05-08T11:15:41.989Z,37.28
2023-05-08T11:18:18.114Z,37.89
2023-05-08T11:20:59.052Z,39.40
2023-05-08T11:23:31.400Z,37.02
2023-05-08T11:26:04.069Z,36.30
2023-05-08T11:28:39.200Z,37.96
2023-05-08T11:31:14.580Z,36.68
2023-05-08T11:33:45.715Z,37.35
2023-05-08T11:36:15.332Z,37.33
2023-05-08T11:39:07.705Z,37.10
2023-05-08T11:41:38.707Z,37.28
2023-05-08T11:44:19.183Z,37.77
2023-05-08T11:47:03.362Z,37.22
2023-05-08T11:49:36.125Z,36.28
2023-05-08T11:52:07.366Z,37.32
2023-05-08T11:54:38.285Z,36.37
2023-05-08T11:57:07.353Z,35.80
2023-05-08T11:59:41.171Z,37.63
2023-05-08T12:02:11.859Z,36.15
2023-05-08T12:04:48.819Z,36.13
2023-05-08T12:07:19.534Z,37.12
2023-05-08T12:09:50.333Z,37.46
2023-05-08T12:12:19.511Z,37.24
2023-05-08T12:14:52.439Z,37.89
2023-05-08T12:17:23.213Z,38.09
2023-05-08T12:19:57.494Z,38.42
2023-05-08T12:22:28.124Z,37.55
2023-05-08T12:24:59.174Z,37.43
2023-05-08T12:27:29.835Z,37.67
2023-05-08T12:30:00.866Z,37.60
2023-05-08T12:32:31.966Z,37.67
2023-05-08T12:35:03.059Z,36.49
2023-05-08T12:37:34.041Z,36.70
2023-05-08T12:40:06.947Z,37.14
2023-05-08T12:42:50.022Z,35.76
2023-05-08T12:45:38.893Z,35.86
2023-05-08T12:48:11.212Z,36.58
2023-05-08T12:50:44.003Z,37.45
2023-05-08T12:53:18.808Z,37.28
2023-05-08T12:55:54.384Z,37.50
2023-05-08T12:58:28.231Z,36.60
2023-05-08T13:01:11.249Z,37.23
2023-05-08T13:03:42.977Z,35.88
2023-05-08T13:06:24.205Z,36.77
2023-05-08T13:08:56.163Z,36.66
2023-05-08T13:11:33.867Z,36.23
2023-05-08T13:14:04.748Z,37.01
2023-05-08T13:16:45.138Z,37.13
2023-05-08T13:19:16.108Z,37.40
2023-05-08T13:21:46.984Z,37.24
2023-05-08T13:24:18.109Z,36.08
2023-05-08T13:26:47.256Z,34.65
2023-05-08T13:29:17.925Z,35.58
2023-05-08T13:31:48.658Z,34.96
2023-05-08T13:34:19.332Z,36.38
2023-05-08T13:36:51.043Z,35.82
2023-05-08T13:39:21.678Z,34.75
2023-05-08T13:41:52.354Z,35.46
2023-05-08T13:44:22.996Z,35.26
2023-05-08T13:46:53.677Z,35.17
2023-05-08T13:49:24.279Z,36.09
2023-05-08T13:51:57.172Z,36.02
2023-05-08T13:54:28.306Z,35.98
2023-05-08T13:56:57.389Z,34.69
2023-05-08T13:59:28.889Z,35.86
2023-05-08T14:02:00.566Z,35.17
2023-05-08T14:04:31.296Z,35.76
2023-05-08T14:07:02.028Z,36.03
2023-05-08T14:09:31.070Z,36.02
2023-05-08T14:12:01.781Z,35.61
2023-05-08T14:14:33.677Z,35.33
2023-05-08T14:17:06.001Z,34.55
2023-05-08T14:19:36.630Z,34.63
2023-05-08T14:22:07.411Z,34.56
2023-05-08T14:24:36.518Z,34.23
2023-05-08T14:27:07.135Z,34.69
2023-05-08T14:29:37.980Z,35.20
2023-05-08T14:32:07.020Z,35.90
2023-05-08T14:34:37.797Z,35.79
2023-05-08T14:37:06.849Z,34.76
2023-05-08T14:39:37.593Z,34.32
2023-05-08T14:44:41.863Z,35.28
2023-05-08T14:47:12.576Z,35.24
2023-05-08T14:49:43.280Z,35.02
2023-05-08T14:52:13.917Z,35.03
2023-05-08T14:54:45.491Z,35.39
2023-05-08T14:57:16.327Z,35.10
2023-05-08T14:59:55.080Z,35.31
2023-05-08T15:02:26.201Z,35.07
2023-05-08T15:04:55.502Z,35.26
2023-05-08T15:07:26.104Z,34.66
2023-05-08T15:09:56.799Z,34.92
2023-05-08T15:12:28.136Z,34.59
2023-05-08T15:14:59.437Z,34.21
2023-05-08T15:17:31.426Z,34.10
2023-05-08T15:20:02.345Z,34.35
2023-05-08T15:22:33.002Z,33.88
2023-05-08T15:25:04.243Z,34.22
2023-05-08T15:27:35.035Z,34.10
2023-05-08T15:30:07.453Z,33.98
2023-05-08T15:32:38.115Z,34.30
2023-05-08T15:35:10.014Z,34.94
2023-05-08T15:37:40.599Z,34.89
2023-05-08T15:40:12.914Z,34.65
2023-05-08T15:42:43.823Z,34.69
2023-05-08T15:45:25.799Z,33.76
2023-05-08T15:47:59.401Z,34.20
2023-05-08T15:50:30.074Z,34.86
2023-05-08T15:53:00.702Z,35.58
2023-05-08T15:55:38.363Z,35.64
2023-05-08T15:58:09.019Z,35.06
2023-05-08T16:00:44.733Z,35.35
2023-05-08T16:03:16.188Z,35.80
2023-05-08T16:05:45.393Z,35.85
2023-05-08T16:08:16.011Z,35.30
2023-05-08T16:10:46.784Z,34.74
2023-05-08T16:13:16.007Z,34.81
2023-05-08T16:15:46.700Z,35.13
2023-05-08T16:18:17.404Z,35.15
2023-05-08T16:20:48.328Z,35.45
2023-05-08T16:23:22.552Z,35.24
2023-05-08T16:25:53.298Z,35.20
2023-05-08T16:28:24.179Z,35.02
2023-05-08T16:30:53.230Z,34.95
2023-05-08T16:33:24.142Z,35.46
2023-05-08T16:35:55.161Z,34.91
2023-05-08T16:38:25.887Z,35.22
2023-05-08T16:41:12.834Z,35.45
2023-05-08T16:43:43.484Z,35.20
2023-05-08T16:46:34.186Z,35.28
2023-05-08T16:49:08.151Z,35.42
2023-05-08T16:51:39.280Z,35.29
2023-05-08T16:54:12.229Z,35.40
2023-05-08T16:56:43.000Z,35.37
2023-05-08T16:59:13.597Z,35.60
2023-05-08T17:01:44.513Z,36.07
2023-05-08T17:04:15.513Z,36.02
2023-05-08T17:06:44.629Z,36.25
2023-05-08T17:09:15.401Z,36.34
2023-05-08T17:11:47.522Z,36.34
2023-05-08T17:14:18.145Z,36.18
2023-05-08T17:16:49.126Z,36.40
2023-05-08T17:19:20.054Z,36.46
2023-05-08T17:21:51.200Z,36.52
2023-05-08T17:24:22.195Z,36.57
2023-05-08T17:26:51.423Z,36.55
2023-05-08T17:29:22.009Z,36.54
2023-05-08T17:31:52.897Z,36.46
2023-05-08T17:34:23.962Z,36.61
2023-05-08T17:36:55.210Z,36.69
2023-05-08T17:39:26.044Z,36.62
2023-05-08T17:41:56.727Z,36.57
2023-05-08T17:44:27.531Z,36.83
2023-05-08T17:46:56.663Z,36.95
2023-05-08T17:49:27.316Z,36.78
2023-05-08T17:51:58.037Z,36.95
2023-05-08T17:54:28.681Z,37.03
2023-05-08T17:56:59.332Z,37.07
2023-05-08T17:59:30.079Z,37.18
2023-05-08T18:02:00.914Z,37.37
2023-05-08T18:04:30.124Z,37.89
2023-05-08T18:07:00.909Z,38.01
2023-05-08T18:09:31.799Z,38.06
2023-05-08T18:12:02.693Z,38.27
2023-05-08T18:14:34.194Z,38.62
2023-05-08T18:17:04.885Z,38.55
2023-05-08T18:19:35.479Z,38.86
2023-05-08T18:22:06.088Z,39.04
2023-05-08T18:24:36.736Z,39.25
2023-05-08T18:27:07.651Z,39.28
2023-05-08T18:29:37.091Z,39.43
2023-05-08T18:32:08.044Z,39.72
2023-05-08T18:34:38.764Z,39.79
2023-05-08T18:37:09.779Z,40.07
2023-05-08T18:39:40.445Z,40.12
2023-05-08T18:42:11.107Z,40.33
2023-05-08T18:44:41.770Z,40.45
2023-05-08T18:47:12.423Z,40.59
2023-05-08T18:49:43.048Z,40.78
2023-05-08T18:52:14.070Z,40.92
2023-05-08T18:54:44.746Z,41.02
2023-05-08T18:57:15.437Z,41.24
2023-05-08T18:59:46.141Z,41.45
2023-05-08T19:02:16.966Z,41.52
2023-05-08T19:04:47.844Z,41.67
2023-05-08T19:07:18.598Z,41.83
2023-05-08T19:09:49.205Z,42.01
2023-05-08T19:12:20.029Z,42.08
2023-05-08T19:14:50.718Z,42.34
2023-05-08T19:17:21.400Z,42.36
2023-05-08T19:19:52.764Z,42.60
2023-05-08T19:22:23.408Z,42.61
2023-05-08T19:24:54.199Z,42.84
2023-05-08T19:27:25.039Z,42.98
2023-05-08T19:29:54.326Z,43.05
2023-05-08T19:32:24.995Z,43.27
2023-05-08T19:34:55.677Z,43.24
2023-05-08T19:37:26.458Z,43.35
2023-05-08T19:39:57.149Z,43.81
2023-05-08T19:42:27.811Z,43.71
2023-05-08T19:44:58.494Z,43.89
2023-05-08T19:47:29.228Z,43.84
2023-05-08T19:50:00.171Z,44.07
2023-05-08T19:52:29.240Z,44.02
2023-05-08T19:55:01.931Z,44.09
2023-05-08T19:57:32.631Z,44.28
2023-05-08T20:00:03.488Z,44.49
2023-05-08T20:02:34.184Z,44.57
2023-05-08T20:05:21.715Z,45.06
2023-05-08T20:07:56.530Z,44.96
2023-05-08T20:10:27.685Z,45.00
2023-05-08T20:12:56.798Z,45.41
2023-05-08T20:15:27.593Z,45.24
2023-05-08T20:17:58.258Z,45.37
2023-05-08T20:20:29.032Z,45.59
2023-05-08T20:22:59.914Z,45.70
2023-05-08T20:25:30.670Z,45.75
2023-05-08T20:28:01.855Z,45.92
2023-05-08T20:30:32.591Z,45.95
2023-05-08T20:33:03.461Z,45.98
2023-05-08T20:35:34.677Z,46.09
2023-05-08T20:38:05.480Z,46.14
2023-05-08T20:40:36.181Z,46.22
2023-05-08T20:43:06.868Z,46.44
2023-05-08T20:45:37.718Z,46.48
2023-05-08T20:48:08.556Z,46.53
2023-05-08T20:50:39.225Z,47.02
2023-05-08T20:53:10.472Z,46.75
2023-05-08T20:55:44.993Z,47.09
2023-05-08T20:58:15.580Z,46.98
2023-05-08T21:00:46.248Z,47.30
2023-05-08T21:03:16.838Z,47.27
2023-05-08T21:05:47.500Z,47.41
2023-05-08T21:08:20.850Z,47.63
2023-05-08T21:10:51.820Z,47.72
2023-05-08T21:13:20.963Z,47.61
2023-05-08T21:15:52.128Z,47.80
2023-05-08T21:18:24.451Z,47.78
2023-05-08T21:20:55.056Z,48.06
2023-05-08T21:23:25.708Z,47.99
2023-05-08T21:25:56.353Z,48.13
2023-05-08T21:28:26.987Z,48.35
2023-05-08T21:30:57.648Z,48.35
2023-05-08T21:33:28.330Z,48.31
2023-05-08T21:36:00.642Z,48.47
2023-05-08T21:38:31.311Z,48.73
2023-05-08T21:41:07.987Z,49.02
2023-05-08T21:43:39.053Z,48.93
2023-05-08T21:46:08.188Z,49.07
2023-05-08T21:48:39.422Z,49.24
2023-05-08T21:51:10.092Z,49.82
2023-05-08T21:53:40.683Z,49.53
2023-05-08T21:56:11.366Z,49.47
2023-05-08T21:58:41.952Z,49.71
2023-05-08T22:01:12.612Z,49.68
2023-05-08T22:03:43.401Z,49.53
2023-05-08T22:06:14.080Z,49.57
2023-05-08T22:08:44.765Z,49.57
2023-05-08T22:11:15.436Z,49.46
2023-05-08T22:13:46.146Z,49.59
2023-05-08T22:16:17.446Z,49.63
2023-05-08T22:18:48.114Z,49.76
2023-05-08T22:21:18.865Z,49.77
2023-05-08T22:23:49.780Z,50.02
2023-05-08T22:26:20.365Z,49.86
2023-05-08T22:28:51.192Z,50.05
2023-05-08T22:31:21.918Z,49.95
2023-05-08T22:33:52.535Z,49.94
2023-05-08T22:36:23.392Z,50.02
2023-05-08T22:38:53.982Z,50.05
2023-05-08T22:41:24.620Z,50.14
2023-05-08T22:43:55.782Z,50.30
2023-05-08T22:46:26.632Z,50.27
2023-05-08T22:48:57.562Z,50.27
2023-05-08T22:51:28.321Z,50.36
2023-05-08T22:53:58.955Z,50.48
2023-05-08T22:56:29.657Z,50.48
2023-05-08T22:59:00.275Z,50.41
2023-05-08T23:01:31.045Z,50.42
2023-05-08T23:04:01.752Z,50.53
2023-05-08T23:06:32.391Z,50.53
2023-05-08T23:09:03.039Z,50.64
2023-05-08T23:11:33.674Z,50.69
2023-05-08T23:14:04.630Z,50.61
2023-05-08T23:16:33.822Z,50.96
2023-05-08T23:19:04.535Z,50.88
2023-05-08T23:21:35.325Z,50.93
2023-05-08T23:24:08.036Z,51.06
2023-05-08T23:26:40.713Z,51.14
2023-05-08T23:29:12.643Z,51.27
2023-05-08T23:31:43.304Z,51.18
2023-05-08T23:34:13.952Z,51.20
2023-05-08T23:36:44.655Z,51.39
2023-05-08T23:39:15.233Z,51.35
2023-05-08T23:41:45.960Z,51.45
2023-05-08T23:44:17.559Z,51.42
2023-05-08T23:46:48.313Z,51.46
2023-05-08T23:49:19.063Z,51.53
2023-05-08T23:51:49.696Z,51.69
2023-05-08T23:54:20.321Z,51.76
2023-05-08T23:56:50.957Z,51.83
2023-05-08T23:59:21.590Z,52.00
